<?xml version="1.0" encoding="UTF-8" standalone="no" ?>
<gpx xmlns="http://www.topografix.com/GPX/1/1" xmlns:xsi="http://www.w3.org/2001/XMLSchema-instance" xsi:schemaLocation="http://www.topografix.com/GPX/1/1 http://www.topografix.com/GPX/1/1/gpx.xsd" version="1.1" creator="VisuGPX - https://www.visugpx.com">
  <metadata>
    <name>randonnée mervent classe de sixième</name>
    <desc><![CDATA[petit parcours proche du site d\'escalade de mervent ]]></desc>
  </metadata>
  <trk>
    <name><![CDATA[randonnée mervent classe de sixième_1]]></name>
    <trkseg>
      <trkpt lat="46.52775" lon="-0.77083">
        <ele>104.686821</ele>
        <time>2013-09-19 17:17:38Z</time>
      </trkpt>
      <trkpt lat="46.52775" lon="-0.77083">
        <ele>104.686821</ele>
        <time>2013-09-19 17:17:42Z</time>
      </trkpt>
      <trkpt lat="46.52775" lon="-0.77083">
        <ele>104.686821</ele>
        <time>2013-09-19 17:17:46Z</time>
      </trkpt>
      <trkpt lat="46.52775" lon="-0.77083">
        <ele>104.686821</ele>
        <time>2013-09-19 17:17:50Z</time>
      </trkpt>
      <trkpt lat="46.52775" lon="-0.77083">
        <ele>104.686821</ele>
        <time>2013-09-19 17:17:54Z</time>
      </trkpt>
      <trkpt lat="46.52775" lon="-0.77083">
        <ele>104.686821</ele>
        <time>2013-09-19 17:17:58Z</time>
      </trkpt>
      <trkpt lat="46.52775" lon="-0.77083">
        <ele>104.686821</ele>
        <time>2013-09-19 17:18:02Z</time>
      </trkpt>
      <trkpt lat="46.52775" lon="-0.77083">
        <ele>104.686821</ele>
        <time>2013-09-19 17:18:06Z</time>
      </trkpt>
      <trkpt lat="46.52775" lon="-0.77083">
        <ele>104.686821</ele>
        <time>2013-09-19 17:18:10Z</time>
      </trkpt>
      <trkpt lat="46.52775" lon="-0.77083">
        <ele>104.686821</ele>
        <time>2013-09-19 17:18:14Z</time>
      </trkpt>
      <trkpt lat="46.52775" lon="-0.77083">
        <ele>104.686821</ele>
        <time>2013-09-19 17:18:18Z</time>
      </trkpt>
      <trkpt lat="46.52775" lon="-0.77083">
        <ele>104.686821</ele>
        <time>2013-09-19 17:18:22Z</time>
      </trkpt>
      <trkpt lat="46.52775" lon="-0.77083">
        <ele>104.686821</ele>
        <time>2013-09-19 17:18:26Z</time>
      </trkpt>
      <trkpt lat="46.52775" lon="-0.77083">
        <ele>104.686821</ele>
        <time>2013-09-19 17:18:30Z</time>
      </trkpt>
      <trkpt lat="46.52775" lon="-0.77083">
        <ele>104.686821</ele>
        <time>2013-09-19 17:18:34Z</time>
      </trkpt>
      <trkpt lat="46.52775" lon="-0.77083">
        <ele>104.686821</ele>
        <time>2013-09-19 17:18:38Z</time>
      </trkpt>
      <trkpt lat="46.52775" lon="-0.77083">
        <ele>104.686821</ele>
        <time>2013-09-19 17:18:42Z</time>
      </trkpt>
      <trkpt lat="46.52793" lon="-0.77113">
        <ele>101.686676</ele>
        <time>2013-09-19 17:18:46Z</time>
      </trkpt>
      <trkpt lat="46.52793" lon="-0.77113">
        <ele>101.686676</ele>
        <time>2013-09-19 17:18:50Z</time>
      </trkpt>
      <trkpt lat="46.52832" lon="-0.77116">
        <ele>99.686806</ele>
        <time>2013-09-19 17:18:54Z</time>
      </trkpt>
      <trkpt lat="46.52837" lon="-0.77117">
        <ele>99.686813</ele>
        <time>2013-09-19 17:18:58Z</time>
      </trkpt>
      <trkpt lat="46.52859" lon="-0.77127">
        <ele>97.686829</ele>
        <time>2013-09-19 17:19:02Z</time>
      </trkpt>
      <trkpt lat="46.52871" lon="-0.77137">
        <ele>96.686806</ele>
        <time>2013-09-19 17:19:06Z</time>
      </trkpt>
      <trkpt lat="46.52894" lon="-0.77165">
        <ele>92.686684</ele>
        <time>2013-09-19 17:19:14Z</time>
      </trkpt>
      <trkpt lat="46.52909" lon="-0.7719">
        <ele>89.686554</ele>
        <time>2013-09-19 17:19:20Z</time>
      </trkpt>
      <trkpt lat="46.5291" lon="-0.77192">
        <ele>89.686546</ele>
        <time>2013-09-19 17:19:24Z</time>
      </trkpt>
      <trkpt lat="46.5291" lon="-0.77192">
        <ele>89.686546</ele>
        <time>2013-09-19 17:19:28Z</time>
      </trkpt>
      <trkpt lat="46.5291" lon="-0.77192">
        <ele>89.686546</ele>
        <time>2013-09-19 17:19:32Z</time>
      </trkpt>
      <trkpt lat="46.52928" lon="-0.77195">
        <ele>86.6866</ele>
        <time>2013-09-19 17:19:36Z</time>
      </trkpt>
      <trkpt lat="46.52938" lon="-0.77196">
        <ele>85.68663</ele>
        <time>2013-09-19 17:19:40Z</time>
      </trkpt>
      <trkpt lat="46.52938" lon="-0.77196">
        <ele>85.68663</ele>
        <time>2013-09-19 17:19:44Z</time>
      </trkpt>
      <trkpt lat="46.52938" lon="-0.77196">
        <ele>85.68663</ele>
        <time>2013-09-19 17:19:48Z</time>
      </trkpt>
      <trkpt lat="46.52946" lon="-0.772">
        <ele>83.68663</ele>
        <time>2013-09-19 17:19:52Z</time>
      </trkpt>
      <trkpt lat="46.52946" lon="-0.772">
        <ele>83.68663</ele>
        <time>2013-09-19 17:19:56Z</time>
      </trkpt>
      <trkpt lat="46.52946" lon="-0.772">
        <ele>83.68663</ele>
        <time>2013-09-19 17:20:00Z</time>
      </trkpt>
      <trkpt lat="46.52946" lon="-0.772">
        <ele>83.68663</ele>
        <time>2013-09-19 17:20:04Z</time>
      </trkpt>
      <trkpt lat="46.52948" lon="-0.77206">
        <ele>80.6866</ele>
        <time>2013-09-19 17:20:08Z</time>
      </trkpt>
      <trkpt lat="46.52948" lon="-0.77206">
        <ele>80.6866</ele>
        <time>2013-09-19 17:20:12Z</time>
      </trkpt>
      <trkpt lat="46.52948" lon="-0.77206">
        <ele>80.6866</ele>
        <time>2013-09-19 17:20:16Z</time>
      </trkpt>
      <trkpt lat="46.52962" lon="-0.77223">
        <ele>71.686523</ele>
        <time>2013-09-19 17:20:20Z</time>
      </trkpt>
      <trkpt lat="46.52962" lon="-0.77223">
        <ele>71.686523</ele>
        <time>2013-09-19 17:20:24Z</time>
      </trkpt>
      <trkpt lat="46.52962" lon="-0.77223">
        <ele>71.686523</ele>
        <time>2013-09-19 17:20:28Z</time>
      </trkpt>
      <trkpt lat="46.52962" lon="-0.77223">
        <ele>71.686523</ele>
        <time>2013-09-19 17:20:32Z</time>
      </trkpt>
      <trkpt lat="46.5299" lon="-0.77244">
        <ele>61.686481</ele>
        <time>2013-09-19 17:20:36Z</time>
      </trkpt>
      <trkpt lat="46.52996" lon="-0.77252">
        <ele>60.686447</ele>
        <time>2013-09-19 17:20:40Z</time>
      </trkpt>
      <trkpt lat="46.53005" lon="-0.7726">
        <ele>59.686424</ele>
        <time>2013-09-19 17:20:44Z</time>
      </trkpt>
      <trkpt lat="46.53021" lon="-0.77268">
        <ele>55.686432</ele>
        <time>2013-09-19 17:20:48Z</time>
      </trkpt>
      <trkpt lat="46.53032" lon="-0.7727">
        <ele>53.686443</ele>
        <time>2013-09-19 17:20:52Z</time>
      </trkpt>
      <trkpt lat="46.53032" lon="-0.7727">
        <ele>53.686443</ele>
        <time>2013-09-19 17:20:56Z</time>
      </trkpt>
      <trkpt lat="46.53038" lon="-0.77272">
        <ele>51.686462</ele>
        <time>2013-09-19 17:21:00Z</time>
      </trkpt>
      <trkpt lat="46.53038" lon="-0.77272">
        <ele>51.686474</ele>
        <time>2013-09-19 17:21:04Z</time>
      </trkpt>
      <trkpt lat="46.5304" lon="-0.77264">
        <ele>52.686523</ele>
        <time>2013-09-19 17:21:08Z</time>
      </trkpt>
      <trkpt lat="46.5304" lon="-0.77264">
        <ele>52.686523</ele>
        <time>2013-09-19 17:21:12Z</time>
      </trkpt>
      <trkpt lat="46.5304" lon="-0.77264">
        <ele>52.686523</ele>
        <time>2013-09-19 17:21:16Z</time>
      </trkpt>
      <trkpt lat="46.5304" lon="-0.77264">
        <ele>52.686523</ele>
        <time>2013-09-19 17:21:20Z</time>
      </trkpt>
      <trkpt lat="46.5304" lon="-0.77264">
        <ele>52.686523</ele>
        <time>2013-09-19 17:21:24Z</time>
      </trkpt>
      <trkpt lat="46.53045" lon="-0.77268">
        <ele>50.686512</ele>
        <time>2013-09-19 17:21:28Z</time>
      </trkpt>
      <trkpt lat="46.53045" lon="-0.77278">
        <ele>49.68644</ele>
        <time>2013-09-19 17:21:32Z</time>
      </trkpt>
      <trkpt lat="46.53045" lon="-0.77283">
        <ele>50.686401</ele>
        <time>2013-09-19 17:21:36Z</time>
      </trkpt>
      <trkpt lat="46.53047" lon="-0.7729">
        <ele>51.686363</ele>
        <time>2013-09-19 17:21:40Z</time>
      </trkpt>
      <trkpt lat="46.5305" lon="-0.77294">
        <ele>50.686348</ele>
        <time>2013-09-19 17:21:44Z</time>
      </trkpt>
      <trkpt lat="46.53051" lon="-0.77295">
        <ele>50.68634</ele>
        <time>2013-09-19 17:21:48Z</time>
      </trkpt>
      <trkpt lat="46.53053" lon="-0.77296">
        <ele>50.686333</ele>
        <time>2013-09-19 17:21:52Z</time>
      </trkpt>
      <trkpt lat="46.53054" lon="-0.77298">
        <ele>50.686333</ele>
        <time>2013-09-19 17:21:56Z</time>
      </trkpt>
      <trkpt lat="46.53054" lon="-0.77301">
        <ele>48.68631</ele>
        <time>2013-09-19 17:22:00Z</time>
      </trkpt>
      <trkpt lat="46.53055" lon="-0.77307">
        <ele>47.686264</ele>
        <time>2013-09-19 17:22:04Z</time>
      </trkpt>
      <trkpt lat="46.53054" lon="-0.77308">
        <ele>46.686256</ele>
        <time>2013-09-19 17:22:08Z</time>
      </trkpt>
      <trkpt lat="46.53053" lon="-0.77317">
        <ele>45.68618</ele>
        <time>2013-09-19 17:22:12Z</time>
      </trkpt>
      <trkpt lat="46.53053" lon="-0.77323">
        <ele>44.686142</ele>
        <time>2013-09-19 17:22:16Z</time>
      </trkpt>
      <trkpt lat="46.53052" lon="-0.77329">
        <ele>45.686085</ele>
        <time>2013-09-19 17:22:20Z</time>
      </trkpt>
      <trkpt lat="46.53051" lon="-0.77335">
        <ele>45.686039</ele>
        <time>2013-09-19 17:22:24Z</time>
      </trkpt>
      <trkpt lat="46.53051" lon="-0.77341">
        <ele>44.685997</ele>
        <time>2013-09-19 17:22:28Z</time>
      </trkpt>
      <trkpt lat="46.53048" lon="-0.77346">
        <ele>43.685944</ele>
        <time>2013-09-19 17:22:32Z</time>
      </trkpt>
      <trkpt lat="46.53047" lon="-0.77352">
        <ele>42.68589</ele>
        <time>2013-09-19 17:22:36Z</time>
      </trkpt>
      <trkpt lat="46.53045" lon="-0.77356">
        <ele>42.68586</ele>
        <time>2013-09-19 17:22:40Z</time>
      </trkpt>
      <trkpt lat="46.53045" lon="-0.77361">
        <ele>42.685814</ele>
        <time>2013-09-19 17:22:44Z</time>
      </trkpt>
      <trkpt lat="46.53044" lon="-0.77365">
        <ele>41.685799</ele>
        <time>2013-09-19 17:22:48Z</time>
      </trkpt>
      <trkpt lat="46.53043" lon="-0.77368">
        <ele>41.68576</ele>
        <time>2013-09-19 17:22:52Z</time>
      </trkpt>
      <trkpt lat="46.53043" lon="-0.77368">
        <ele>41.68576</ele>
        <time>2013-09-19 17:22:56Z</time>
      </trkpt>
      <trkpt lat="46.53043" lon="-0.77368">
        <ele>41.68576</ele>
        <time>2013-09-19 17:23:00Z</time>
      </trkpt>
      <trkpt lat="46.53043" lon="-0.77368">
        <ele>41.68576</ele>
        <time>2013-09-19 17:23:04Z</time>
      </trkpt>
      <trkpt lat="46.53043" lon="-0.77368">
        <ele>41.68576</ele>
        <time>2013-09-19 17:23:08Z</time>
      </trkpt>
      <trkpt lat="46.53043" lon="-0.77368">
        <ele>41.68576</ele>
        <time>2013-09-19 17:23:12Z</time>
      </trkpt>
      <trkpt lat="46.53043" lon="-0.77368">
        <ele>41.68576</ele>
        <time>2013-09-19 17:23:16Z</time>
      </trkpt>
      <trkpt lat="46.53043" lon="-0.77368">
        <ele>41.68576</ele>
        <time>2013-09-19 17:23:20Z</time>
      </trkpt>
      <trkpt lat="46.53043" lon="-0.77368">
        <ele>41.68576</ele>
        <time>2013-09-19 17:23:25Z</time>
      </trkpt>
      <trkpt lat="46.53043" lon="-0.77368">
        <ele>41.68576</ele>
        <time>2013-09-19 17:23:30Z</time>
      </trkpt>
      <trkpt lat="46.53043" lon="-0.77368">
        <ele>41.68576</ele>
        <time>2013-09-19 17:23:34Z</time>
      </trkpt>
      <trkpt lat="46.53043" lon="-0.77368">
        <ele>41.68576</ele>
        <time>2013-09-19 17:23:38Z</time>
      </trkpt>
      <trkpt lat="46.53043" lon="-0.77368">
        <ele>41.68576</ele>
        <time>2013-09-19 17:23:42Z</time>
      </trkpt>
      <trkpt lat="46.53028" lon="-0.77358">
        <ele>48.685776</ele>
        <time>2013-09-19 17:23:46Z</time>
      </trkpt>
      <trkpt lat="46.53028" lon="-0.77359">
        <ele>48.685776</ele>
        <time>2013-09-19 17:23:50Z</time>
      </trkpt>
      <trkpt lat="46.53028" lon="-0.7736">
        <ele>49.68576</ele>
        <time>2013-09-19 17:23:54Z</time>
      </trkpt>
      <trkpt lat="46.53029" lon="-0.7736">
        <ele>49.68576</ele>
        <time>2013-09-19 17:23:58Z</time>
      </trkpt>
      <trkpt lat="46.53029" lon="-0.77362">
        <ele>51.685753</ele>
        <time>2013-09-19 17:24:02Z</time>
      </trkpt>
      <trkpt lat="46.53029" lon="-0.77363">
        <ele>52.685738</ele>
        <time>2013-09-19 17:24:06Z</time>
      </trkpt>
      <trkpt lat="46.53029" lon="-0.77364">
        <ele>52.685738</ele>
        <time>2013-09-19 17:24:10Z</time>
      </trkpt>
      <trkpt lat="46.53029" lon="-0.77364">
        <ele>52.685738</ele>
        <time>2013-09-19 17:24:14Z</time>
      </trkpt>
      <trkpt lat="46.53029" lon="-0.77364">
        <ele>52.685738</ele>
        <time>2013-09-19 17:24:18Z</time>
      </trkpt>
      <trkpt lat="46.53029" lon="-0.77364">
        <ele>52.685738</ele>
        <time>2013-09-19 17:24:23Z</time>
      </trkpt>
      <trkpt lat="46.53029" lon="-0.77364">
        <ele>52.685738</ele>
        <time>2013-09-19 17:24:26Z</time>
      </trkpt>
      <trkpt lat="46.53029" lon="-0.77364">
        <ele>52.685738</ele>
        <time>2013-09-19 17:24:30Z</time>
      </trkpt>
      <trkpt lat="46.53029" lon="-0.77364">
        <ele>52.685738</ele>
        <time>2013-09-19 17:24:34Z</time>
      </trkpt>
      <trkpt lat="46.53029" lon="-0.77364">
        <ele>52.685738</ele>
        <time>2013-09-19 17:24:38Z</time>
      </trkpt>
      <trkpt lat="46.53029" lon="-0.77364">
        <ele>52.685738</ele>
        <time>2013-09-19 17:24:42Z</time>
      </trkpt>
      <trkpt lat="46.53029" lon="-0.77364">
        <ele>52.685738</ele>
        <time>2013-09-19 17:24:46Z</time>
      </trkpt>
      <trkpt lat="46.53029" lon="-0.77364">
        <ele>52.685738</ele>
        <time>2013-09-19 17:24:50Z</time>
      </trkpt>
      <trkpt lat="46.53031" lon="-0.77384">
        <ele>56.6856</ele>
        <time>2013-09-19 17:24:54Z</time>
      </trkpt>
      <trkpt lat="46.53029" lon="-0.7739">
        <ele>56.685555</ele>
        <time>2013-09-19 17:24:58Z</time>
      </trkpt>
      <trkpt lat="46.53025" lon="-0.774">
        <ele>57.685448</ele>
        <time>2013-09-19 17:25:02Z</time>
      </trkpt>
      <trkpt lat="46.53025" lon="-0.774">
        <ele>57.685448</ele>
        <time>2013-09-19 17:25:06Z</time>
      </trkpt>
      <trkpt lat="46.53025" lon="-0.774">
        <ele>57.685448</ele>
        <time>2013-09-19 17:25:10Z</time>
      </trkpt>
      <trkpt lat="46.53017" lon="-0.77425">
        <ele>58.685234</ele>
        <time>2013-09-19 17:25:14Z</time>
      </trkpt>
      <trkpt lat="46.53014" lon="-0.77432">
        <ele>59.685165</ele>
        <time>2013-09-19 17:25:18Z</time>
      </trkpt>
      <trkpt lat="46.53011" lon="-0.77437">
        <ele>60.68512</ele>
        <time>2013-09-19 17:25:22Z</time>
      </trkpt>
      <trkpt lat="46.53011" lon="-0.77437">
        <ele>60.68512</ele>
        <time>2013-09-19 17:25:26Z</time>
      </trkpt>
      <trkpt lat="46.53011" lon="-0.77437">
        <ele>60.68512</ele>
        <time>2013-09-19 17:25:30Z</time>
      </trkpt>
      <trkpt lat="46.53011" lon="-0.77437">
        <ele>60.68512</ele>
        <time>2013-09-19 17:25:34Z</time>
      </trkpt>
      <trkpt lat="46.53011" lon="-0.77437">
        <ele>60.68512</ele>
        <time>2013-09-19 17:25:38Z</time>
      </trkpt>
      <trkpt lat="46.53011" lon="-0.77437">
        <ele>60.68512</ele>
        <time>2013-09-19 17:25:42Z</time>
      </trkpt>
      <trkpt lat="46.53011" lon="-0.77437">
        <ele>60.68512</ele>
        <time>2013-09-19 17:25:46Z</time>
      </trkpt>
      <trkpt lat="46.53011" lon="-0.77437">
        <ele>60.68512</ele>
        <time>2013-09-19 17:25:51Z</time>
      </trkpt>
      <trkpt lat="46.53011" lon="-0.77437">
        <ele>60.68512</ele>
        <time>2013-09-19 17:25:54Z</time>
      </trkpt>
      <trkpt lat="46.53011" lon="-0.77437">
        <ele>60.68512</ele>
        <time>2013-09-19 17:25:58Z</time>
      </trkpt>
      <trkpt lat="46.53011" lon="-0.77437">
        <ele>60.68512</ele>
        <time>2013-09-19 17:26:02Z</time>
      </trkpt>
      <trkpt lat="46.53003" lon="-0.77475">
        <ele>67.684799</ele>
        <time>2013-09-19 17:26:06Z</time>
      </trkpt>
      <trkpt lat="46.53003" lon="-0.77475">
        <ele>67.684799</ele>
        <time>2013-09-19 17:26:10Z</time>
      </trkpt>
      <trkpt lat="46.53003" lon="-0.77475">
        <ele>67.684799</ele>
        <time>2013-09-19 17:26:14Z</time>
      </trkpt>
      <trkpt lat="46.53003" lon="-0.77475">
        <ele>67.684799</ele>
        <time>2013-09-19 17:26:18Z</time>
      </trkpt>
      <trkpt lat="46.53003" lon="-0.77475">
        <ele>67.684799</ele>
        <time>2013-09-19 17:26:22Z</time>
      </trkpt>
      <trkpt lat="46.52994" lon="-0.77516">
        <ele>69.684456</ele>
        <time>2013-09-19 17:26:26Z</time>
      </trkpt>
      <trkpt lat="46.52994" lon="-0.77516">
        <ele>69.684456</ele>
        <time>2013-09-19 17:26:30Z</time>
      </trkpt>
      <trkpt lat="46.52994" lon="-0.77516">
        <ele>69.684456</ele>
        <time>2013-09-19 17:26:34Z</time>
      </trkpt>
      <trkpt lat="46.52983" lon="-0.77551">
        <ele>70.684158</ele>
        <time>2013-09-19 17:26:38Z</time>
      </trkpt>
      <trkpt lat="46.5298" lon="-0.77559">
        <ele>71.684082</ele>
        <time>2013-09-19 17:26:42Z</time>
      </trkpt>
      <trkpt lat="46.5298" lon="-0.77559">
        <ele>71.684082</ele>
        <time>2013-09-19 17:26:46Z</time>
      </trkpt>
      <trkpt lat="46.52976" lon="-0.77567">
        <ele>74.684006</ele>
        <time>2013-09-19 17:26:50Z</time>
      </trkpt>
      <trkpt lat="46.52974" lon="-0.77573">
        <ele>76.683945</ele>
        <time>2013-09-19 17:26:54Z</time>
      </trkpt>
      <trkpt lat="46.52972" lon="-0.77584">
        <ele>77.683868</ele>
        <time>2013-09-19 17:26:58Z</time>
      </trkpt>
      <trkpt lat="46.52968" lon="-0.77596">
        <ele>79.683754</ele>
        <time>2013-09-19 17:27:02Z</time>
      </trkpt>
      <trkpt lat="46.52968" lon="-0.77596">
        <ele>79.683754</ele>
        <time>2013-09-19 17:27:06Z</time>
      </trkpt>
      <trkpt lat="46.52964" lon="-0.77607">
        <ele>80.683662</ele>
        <time>2013-09-19 17:27:10Z</time>
      </trkpt>
      <trkpt lat="46.52962" lon="-0.77616">
        <ele>80.683586</ele>
        <time>2013-09-19 17:27:14Z</time>
      </trkpt>
      <trkpt lat="46.5296" lon="-0.77624">
        <ele>80.683517</ele>
        <time>2013-09-19 17:27:18Z</time>
      </trkpt>
      <trkpt lat="46.52959" lon="-0.77628">
        <ele>80.683487</ele>
        <time>2013-09-19 17:27:22Z</time>
      </trkpt>
      <trkpt lat="46.52957" lon="-0.77635">
        <ele>79.683418</ele>
        <time>2013-09-19 17:27:26Z</time>
      </trkpt>
      <trkpt lat="46.52955" lon="-0.77641">
        <ele>80.683365</ele>
        <time>2013-09-19 17:27:30Z</time>
      </trkpt>
      <trkpt lat="46.52955" lon="-0.77641">
        <ele>80.683365</ele>
        <time>2013-09-19 17:27:34Z</time>
      </trkpt>
      <trkpt lat="46.52952" lon="-0.7765">
        <ele>81.683289</ele>
        <time>2013-09-19 17:27:38Z</time>
      </trkpt>
      <trkpt lat="46.52952" lon="-0.7765">
        <ele>81.683289</ele>
        <time>2013-09-19 17:27:42Z</time>
      </trkpt>
      <trkpt lat="46.52947" lon="-0.77661">
        <ele>83.683182</ele>
        <time>2013-09-19 17:27:46Z</time>
      </trkpt>
      <trkpt lat="46.52946" lon="-0.77666">
        <ele>83.683144</ele>
        <time>2013-09-19 17:27:50Z</time>
      </trkpt>
      <trkpt lat="46.52945" lon="-0.77669">
        <ele>83.683113</ele>
        <time>2013-09-19 17:27:54Z</time>
      </trkpt>
      <trkpt lat="46.52943" lon="-0.77679">
        <ele>83.683037</ele>
        <time>2013-09-19 17:27:58Z</time>
      </trkpt>
      <trkpt lat="46.52942" lon="-0.77687">
        <ele>84.682961</ele>
        <time>2013-09-19 17:28:02Z</time>
      </trkpt>
      <trkpt lat="46.52941" lon="-0.77697">
        <ele>85.682899</ele>
        <time>2013-09-19 17:28:06Z</time>
      </trkpt>
      <trkpt lat="46.5294" lon="-0.7771">
        <ele>86.682793</ele>
        <time>2013-09-19 17:28:10Z</time>
      </trkpt>
      <trkpt lat="46.52939" lon="-0.77717">
        <ele>86.682732</ele>
        <time>2013-09-19 17:28:14Z</time>
      </trkpt>
      <trkpt lat="46.52939" lon="-0.77723">
        <ele>86.682693</ele>
        <time>2013-09-19 17:28:18Z</time>
      </trkpt>
      <trkpt lat="46.52941" lon="-0.77732">
        <ele>87.682632</ele>
        <time>2013-09-19 17:28:22Z</time>
      </trkpt>
      <trkpt lat="46.52943" lon="-0.77741">
        <ele>87.682564</ele>
        <time>2013-09-19 17:28:26Z</time>
      </trkpt>
      <trkpt lat="46.52947" lon="-0.77751">
        <ele>88.68251</ele>
        <time>2013-09-19 17:28:30Z</time>
      </trkpt>
      <trkpt lat="46.52951" lon="-0.77758">
        <ele>88.682472</ele>
        <time>2013-09-19 17:28:34Z</time>
      </trkpt>
      <trkpt lat="46.52953" lon="-0.77762">
        <ele>88.682449</ele>
        <time>2013-09-19 17:28:38Z</time>
      </trkpt>
      <trkpt lat="46.52953" lon="-0.77762">
        <ele>88.682449</ele>
        <time>2013-09-19 17:28:42Z</time>
      </trkpt>
      <trkpt lat="46.52953" lon="-0.77762">
        <ele>88.682449</ele>
        <time>2013-09-19 17:28:46Z</time>
      </trkpt>
      <trkpt lat="46.52957" lon="-0.77762">
        <ele>90.68248</ele>
        <time>2013-09-19 17:28:50Z</time>
      </trkpt>
      <trkpt lat="46.52958" lon="-0.7776">
        <ele>91.682495</ele>
        <time>2013-09-19 17:28:54Z</time>
      </trkpt>
      <trkpt lat="46.52961" lon="-0.77756">
        <ele>90.682541</ele>
        <time>2013-09-19 17:28:58Z</time>
      </trkpt>
      <trkpt lat="46.52962" lon="-0.77755">
        <ele>91.682541</ele>
        <time>2013-09-19 17:29:15Z</time>
      </trkpt>
      <trkpt lat="46.52974" lon="-0.77751">
        <ele>89.682617</ele>
        <time>2013-09-19 17:29:30Z</time>
      </trkpt>
      <trkpt lat="46.52976" lon="-0.77753">
        <ele>88.68261</ele>
        <time>2013-09-19 17:29:34Z</time>
      </trkpt>
      <trkpt lat="46.52977" lon="-0.77754">
        <ele>88.682602</ele>
        <time>2013-09-19 17:29:38Z</time>
      </trkpt>
      <trkpt lat="46.52979" lon="-0.77755">
        <ele>88.682602</ele>
        <time>2013-09-19 17:29:42Z</time>
      </trkpt>
      <trkpt lat="46.52979" lon="-0.77755">
        <ele>88.68261</ele>
        <time>2013-09-19 17:29:46Z</time>
      </trkpt>
      <trkpt lat="46.52979" lon="-0.77755">
        <ele>88.68261</ele>
        <time>2013-09-19 17:29:50Z</time>
      </trkpt>
      <trkpt lat="46.52979" lon="-0.77755">
        <ele>88.68261</ele>
        <time>2013-09-19 17:29:54Z</time>
      </trkpt>
      <trkpt lat="46.52979" lon="-0.77754">
        <ele>88.68261</ele>
        <time>2013-09-19 17:29:59Z</time>
      </trkpt>
      <trkpt lat="46.52979" lon="-0.77754">
        <ele>88.68261</ele>
        <time>2013-09-19 17:30:02Z</time>
      </trkpt>
      <trkpt lat="46.52979" lon="-0.77754">
        <ele>88.68261</ele>
        <time>2013-09-19 17:30:06Z</time>
      </trkpt>
      <trkpt lat="46.52979" lon="-0.77754">
        <ele>88.68261</ele>
        <time>2013-09-19 17:30:10Z</time>
      </trkpt>
      <trkpt lat="46.52973" lon="-0.77757">
        <ele>87.682571</ele>
        <time>2013-09-19 17:30:14Z</time>
      </trkpt>
      <trkpt lat="46.52972" lon="-0.77757">
        <ele>87.682564</ele>
        <time>2013-09-19 17:30:18Z</time>
      </trkpt>
      <trkpt lat="46.52971" lon="-0.77756">
        <ele>86.682564</ele>
        <time>2013-09-19 17:30:22Z</time>
      </trkpt>
      <trkpt lat="46.52971" lon="-0.77756">
        <ele>85.682564</ele>
        <time>2013-09-19 17:30:26Z</time>
      </trkpt>
      <trkpt lat="46.52971" lon="-0.77756">
        <ele>83.682579</ele>
        <time>2013-09-19 17:30:30Z</time>
      </trkpt>
      <trkpt lat="46.5297" lon="-0.77754">
        <ele>82.682587</ele>
        <time>2013-09-19 17:30:34Z</time>
      </trkpt>
      <trkpt lat="46.52969" lon="-0.77753">
        <ele>81.682587</ele>
        <time>2013-09-19 17:30:38Z</time>
      </trkpt>
      <trkpt lat="46.52969" lon="-0.77753">
        <ele>82.682587</ele>
        <time>2013-09-19 17:30:42Z</time>
      </trkpt>
      <trkpt lat="46.52969" lon="-0.77753">
        <ele>82.682587</ele>
        <time>2013-09-19 17:30:46Z</time>
      </trkpt>
      <trkpt lat="46.52969" lon="-0.77753">
        <ele>82.682587</ele>
        <time>2013-09-19 17:30:50Z</time>
      </trkpt>
      <trkpt lat="46.52969" lon="-0.77754">
        <ele>82.682587</ele>
        <time>2013-09-19 17:30:54Z</time>
      </trkpt>
      <trkpt lat="46.52969" lon="-0.77754">
        <ele>82.682587</ele>
        <time>2013-09-19 17:30:58Z</time>
      </trkpt>
      <trkpt lat="46.52969" lon="-0.77754">
        <ele>82.682587</ele>
        <time>2013-09-19 17:31:02Z</time>
      </trkpt>
      <trkpt lat="46.52969" lon="-0.77754">
        <ele>82.682587</ele>
        <time>2013-09-19 17:31:06Z</time>
      </trkpt>
      <trkpt lat="46.52969" lon="-0.77754">
        <ele>82.682587</ele>
        <time>2013-09-19 17:31:10Z</time>
      </trkpt>
      <trkpt lat="46.52969" lon="-0.7776">
        <ele>84.682526</ele>
        <time>2013-09-19 17:31:14Z</time>
      </trkpt>
      <trkpt lat="46.52969" lon="-0.77759">
        <ele>85.682541</ele>
        <time>2013-09-19 17:31:18Z</time>
      </trkpt>
      <trkpt lat="46.5297" lon="-0.77759">
        <ele>86.682549</ele>
        <time>2013-09-19 17:31:22Z</time>
      </trkpt>
      <trkpt lat="46.5297" lon="-0.77759">
        <ele>86.682549</ele>
        <time>2013-09-19 17:31:26Z</time>
      </trkpt>
      <trkpt lat="46.52971" lon="-0.7776">
        <ele>85.682533</ele>
        <time>2013-09-19 17:31:30Z</time>
      </trkpt>
      <trkpt lat="46.52972" lon="-0.77762">
        <ele>87.682526</ele>
        <time>2013-09-19 17:31:34Z</time>
      </trkpt>
      <trkpt lat="46.52972" lon="-0.77762">
        <ele>87.682526</ele>
        <time>2013-09-19 17:31:38Z</time>
      </trkpt>
      <trkpt lat="46.52972" lon="-0.77763">
        <ele>87.682526</ele>
        <time>2013-09-19 17:31:42Z</time>
      </trkpt>
      <trkpt lat="46.52972" lon="-0.77763">
        <ele>87.682526</ele>
        <time>2013-09-19 17:31:46Z</time>
      </trkpt>
      <trkpt lat="46.52972" lon="-0.77763">
        <ele>87.682526</ele>
        <time>2013-09-19 17:31:50Z</time>
      </trkpt>
      <trkpt lat="46.52972" lon="-0.77763">
        <ele>87.682526</ele>
        <time>2013-09-19 17:31:54Z</time>
      </trkpt>
      <trkpt lat="46.52972" lon="-0.77763">
        <ele>87.682526</ele>
        <time>2013-09-19 17:31:58Z</time>
      </trkpt>
      <trkpt lat="46.52972" lon="-0.77763">
        <ele>87.682526</ele>
        <time>2013-09-19 17:32:02Z</time>
      </trkpt>
      <trkpt lat="46.52971" lon="-0.77761">
        <ele>84.682533</ele>
        <time>2013-09-19 17:32:06Z</time>
      </trkpt>
      <trkpt lat="46.52971" lon="-0.77761">
        <ele>84.682533</ele>
        <time>2013-09-19 17:32:10Z</time>
      </trkpt>
      <trkpt lat="46.52971" lon="-0.77761">
        <ele>84.682533</ele>
        <time>2013-09-19 17:32:14Z</time>
      </trkpt>
      <trkpt lat="46.52971" lon="-0.77761">
        <ele>84.682533</ele>
        <time>2013-09-19 17:32:18Z</time>
      </trkpt>
      <trkpt lat="46.5297" lon="-0.77759">
        <ele>83.682549</ele>
        <time>2013-09-19 17:32:22Z</time>
      </trkpt>
      <trkpt lat="46.5297" lon="-0.77759">
        <ele>83.682549</ele>
        <time>2013-09-19 17:32:26Z</time>
      </trkpt>
      <trkpt lat="46.52971" lon="-0.7776">
        <ele>82.682549</ele>
        <time>2013-09-19 17:32:30Z</time>
      </trkpt>
      <trkpt lat="46.52971" lon="-0.7776">
        <ele>82.682549</ele>
        <time>2013-09-19 17:32:34Z</time>
      </trkpt>
      <trkpt lat="46.52971" lon="-0.7776">
        <ele>82.682549</ele>
        <time>2013-09-19 17:32:38Z</time>
      </trkpt>
      <trkpt lat="46.52971" lon="-0.7776">
        <ele>82.682549</ele>
        <time>2013-09-19 17:32:42Z</time>
      </trkpt>
      <trkpt lat="46.52975" lon="-0.77763">
        <ele>84.682533</ele>
        <time>2013-09-19 17:32:46Z</time>
      </trkpt>
      <trkpt lat="46.52975" lon="-0.77763">
        <ele>84.682533</ele>
        <time>2013-09-19 17:32:50Z</time>
      </trkpt>
      <trkpt lat="46.52975" lon="-0.77763">
        <ele>84.682533</ele>
        <time>2013-09-19 17:32:54Z</time>
      </trkpt>
      <trkpt lat="46.52977" lon="-0.77763">
        <ele>86.682549</ele>
        <time>2013-09-19 17:32:58Z</time>
      </trkpt>
      <trkpt lat="46.52977" lon="-0.77763">
        <ele>87.682549</ele>
        <time>2013-09-19 17:33:02Z</time>
      </trkpt>
      <trkpt lat="46.52977" lon="-0.77762">
        <ele>87.682549</ele>
        <time>2013-09-19 17:33:06Z</time>
      </trkpt>
      <trkpt lat="46.52975" lon="-0.77758">
        <ele>86.682564</ele>
        <time>2013-09-19 17:33:10Z</time>
      </trkpt>
      <trkpt lat="46.52976" lon="-0.77753">
        <ele>85.68261</ele>
        <time>2013-09-19 17:33:14Z</time>
      </trkpt>
      <trkpt lat="46.52976" lon="-0.77753">
        <ele>85.68261</ele>
        <time>2013-09-19 17:33:18Z</time>
      </trkpt>
      <trkpt lat="46.52979" lon="-0.77737">
        <ele>84.682739</ele>
        <time>2013-09-19 17:33:22Z</time>
      </trkpt>
      <trkpt lat="46.52987" lon="-0.77721">
        <ele>83.682899</ele>
        <time>2013-09-19 17:33:26Z</time>
      </trkpt>
      <trkpt lat="46.52989" lon="-0.77719">
        <ele>82.682922</ele>
        <time>2013-09-19 17:33:30Z</time>
      </trkpt>
      <trkpt lat="46.52999" lon="-0.77708">
        <ele>78.683044</ele>
        <time>2013-09-19 17:33:34Z</time>
      </trkpt>
      <trkpt lat="46.53002" lon="-0.77702">
        <ele>77.683098</ele>
        <time>2013-09-19 17:33:38Z</time>
      </trkpt>
      <trkpt lat="46.53006" lon="-0.77692">
        <ele>76.683189</ele>
        <time>2013-09-19 17:33:42Z</time>
      </trkpt>
      <trkpt lat="46.53009" lon="-0.77684">
        <ele>75.683258</ele>
        <time>2013-09-19 17:33:46Z</time>
      </trkpt>
      <trkpt lat="46.53009" lon="-0.77684">
        <ele>75.683258</ele>
        <time>2013-09-19 17:33:50Z</time>
      </trkpt>
      <trkpt lat="46.53009" lon="-0.77684">
        <ele>75.683258</ele>
        <time>2013-09-19 17:33:54Z</time>
      </trkpt>
      <trkpt lat="46.53009" lon="-0.77684">
        <ele>75.683258</ele>
        <time>2013-09-19 17:33:58Z</time>
      </trkpt>
      <trkpt lat="46.53025" lon="-0.77645">
        <ele>77.683617</ele>
        <time>2013-09-19 17:34:02Z</time>
      </trkpt>
      <trkpt lat="46.53028" lon="-0.7764">
        <ele>76.683662</ele>
        <time>2013-09-19 17:34:06Z</time>
      </trkpt>
      <trkpt lat="46.53032" lon="-0.77636">
        <ele>76.683708</ele>
        <time>2013-09-19 17:34:10Z</time>
      </trkpt>
      <trkpt lat="46.53037" lon="-0.77624">
        <ele>75.68383</ele>
        <time>2013-09-19 17:34:14Z</time>
      </trkpt>
      <trkpt lat="46.53039" lon="-0.77616">
        <ele>75.683891</ele>
        <time>2013-09-19 17:34:18Z</time>
      </trkpt>
      <trkpt lat="46.53045" lon="-0.77599">
        <ele>74.684052</ele>
        <time>2013-09-19 17:34:22Z</time>
      </trkpt>
      <trkpt lat="46.53048" lon="-0.77591">
        <ele>75.684113</ele>
        <time>2013-09-19 17:34:26Z</time>
      </trkpt>
      <trkpt lat="46.53053" lon="-0.77583">
        <ele>73.684189</ele>
        <time>2013-09-19 17:34:30Z</time>
      </trkpt>
      <trkpt lat="46.53057" lon="-0.77579">
        <ele>73.684235</ele>
        <time>2013-09-19 17:34:34Z</time>
      </trkpt>
      <trkpt lat="46.53057" lon="-0.77579">
        <ele>73.684235</ele>
        <time>2013-09-19 17:34:38Z</time>
      </trkpt>
      <trkpt lat="46.53063" lon="-0.77569">
        <ele>71.684334</ele>
        <time>2013-09-19 17:34:42Z</time>
      </trkpt>
      <trkpt lat="46.53066" lon="-0.77566">
        <ele>71.684364</ele>
        <time>2013-09-19 17:34:46Z</time>
      </trkpt>
      <trkpt lat="46.5308" lon="-0.77552">
        <ele>70.68454</ele>
        <time>2013-09-19 17:34:50Z</time>
      </trkpt>
      <trkpt lat="46.53087" lon="-0.77545">
        <ele>68.684608</ele>
        <time>2013-09-19 17:34:54Z</time>
      </trkpt>
      <trkpt lat="46.53094" lon="-0.77537">
        <ele>68.684692</ele>
        <time>2013-09-19 17:34:58Z</time>
      </trkpt>
      <trkpt lat="46.53103" lon="-0.77524">
        <ele>67.684837</ele>
        <time>2013-09-19 17:35:02Z</time>
      </trkpt>
      <trkpt lat="46.53109" lon="-0.77517">
        <ele>66.684914</ele>
        <time>2013-09-19 17:35:06Z</time>
      </trkpt>
      <trkpt lat="46.53112" lon="-0.77512">
        <ele>65.684952</ele>
        <time>2013-09-19 17:35:10Z</time>
      </trkpt>
      <trkpt lat="46.53122" lon="-0.77503">
        <ele>64.685059</ele>
        <time>2013-09-19 17:35:14Z</time>
      </trkpt>
      <trkpt lat="46.53127" lon="-0.77497">
        <ele>63.685127</ele>
        <time>2013-09-19 17:35:18Z</time>
      </trkpt>
      <trkpt lat="46.53127" lon="-0.77497">
        <ele>63.685127</ele>
        <time>2013-09-19 17:35:22Z</time>
      </trkpt>
      <trkpt lat="46.53135" lon="-0.77485">
        <ele>61.685246</ele>
        <time>2013-09-19 17:35:26Z</time>
      </trkpt>
      <trkpt lat="46.53137" lon="-0.77484">
        <ele>61.685268</ele>
        <time>2013-09-19 17:35:30Z</time>
      </trkpt>
      <trkpt lat="46.53138" lon="-0.77484">
        <ele>62.685272</ele>
        <time>2013-09-19 17:35:34Z</time>
      </trkpt>
      <trkpt lat="46.53138" lon="-0.77483">
        <ele>62.685287</ele>
        <time>2013-09-19 17:35:38Z</time>
      </trkpt>
      <trkpt lat="46.53138" lon="-0.77476">
        <ele>64.685341</ele>
        <time>2013-09-19 17:35:42Z</time>
      </trkpt>
      <trkpt lat="46.53139" lon="-0.77472">
        <ele>63.685364</ele>
        <time>2013-09-19 17:35:46Z</time>
      </trkpt>
      <trkpt lat="46.5314" lon="-0.77471">
        <ele>63.685379</ele>
        <time>2013-09-19 17:35:50Z</time>
      </trkpt>
      <trkpt lat="46.5314" lon="-0.77471">
        <ele>63.685379</ele>
        <time>2013-09-19 17:35:54Z</time>
      </trkpt>
      <trkpt lat="46.53148" lon="-0.77463">
        <ele>62.685471</ele>
        <time>2013-09-19 17:35:58Z</time>
      </trkpt>
      <trkpt lat="46.53148" lon="-0.77463">
        <ele>62.685471</ele>
        <time>2013-09-19 17:36:02Z</time>
      </trkpt>
      <trkpt lat="46.53148" lon="-0.77463">
        <ele>62.685471</ele>
        <time>2013-09-19 17:36:06Z</time>
      </trkpt>
      <trkpt lat="46.53162" lon="-0.77456">
        <ele>59.685585</ele>
        <time>2013-09-19 17:36:10Z</time>
      </trkpt>
      <trkpt lat="46.53172" lon="-0.77454">
        <ele>58.685638</ele>
        <time>2013-09-19 17:36:14Z</time>
      </trkpt>
      <trkpt lat="46.53178" lon="-0.77452">
        <ele>57.685677</ele>
        <time>2013-09-19 17:36:18Z</time>
      </trkpt>
      <trkpt lat="46.53183" lon="-0.77449">
        <ele>56.685726</ele>
        <time>2013-09-19 17:36:22Z</time>
      </trkpt>
      <trkpt lat="46.53193" lon="-0.77443">
        <ele>54.685806</ele>
        <time>2013-09-19 17:36:26Z</time>
      </trkpt>
      <trkpt lat="46.53202" lon="-0.77434">
        <ele>53.685902</ele>
        <time>2013-09-19 17:36:30Z</time>
      </trkpt>
      <trkpt lat="46.53215" lon="-0.77419">
        <ele>53.686066</ele>
        <time>2013-09-19 17:36:34Z</time>
      </trkpt>
      <trkpt lat="46.53232" lon="-0.77404">
        <ele>51.686249</ele>
        <time>2013-09-19 17:36:38Z</time>
      </trkpt>
      <trkpt lat="46.53238" lon="-0.77398">
        <ele>51.686317</ele>
        <time>2013-09-19 17:36:42Z</time>
      </trkpt>
      <trkpt lat="46.53238" lon="-0.77398">
        <ele>51.686317</ele>
        <time>2013-09-19 17:36:46Z</time>
      </trkpt>
      <trkpt lat="46.53238" lon="-0.77398">
        <ele>51.686317</ele>
        <time>2013-09-19 17:36:50Z</time>
      </trkpt>
      <trkpt lat="46.53238" lon="-0.77398">
        <ele>51.686317</ele>
        <time>2013-09-19 17:36:54Z</time>
      </trkpt>
      <trkpt lat="46.53238" lon="-0.77398">
        <ele>51.686317</ele>
        <time>2013-09-19 17:36:58Z</time>
      </trkpt>
      <trkpt lat="46.53238" lon="-0.77398">
        <ele>51.686317</ele>
        <time>2013-09-19 17:37:02Z</time>
      </trkpt>
      <trkpt lat="46.53238" lon="-0.77398">
        <ele>51.686317</ele>
        <time>2013-09-19 17:37:06Z</time>
      </trkpt>
      <trkpt lat="46.53238" lon="-0.77398">
        <ele>51.686317</ele>
        <time>2013-09-19 17:37:10Z</time>
      </trkpt>
      <trkpt lat="46.53238" lon="-0.77398">
        <ele>51.686317</ele>
        <time>2013-09-19 17:37:14Z</time>
      </trkpt>
      <trkpt lat="46.53238" lon="-0.77398">
        <ele>51.686317</ele>
        <time>2013-09-19 17:37:18Z</time>
      </trkpt>
      <trkpt lat="46.53244" lon="-0.77384">
        <ele>52.686451</ele>
        <time>2013-09-19 17:37:22Z</time>
      </trkpt>
      <trkpt lat="46.53244" lon="-0.77384">
        <ele>52.686451</ele>
        <time>2013-09-19 17:37:26Z</time>
      </trkpt>
      <trkpt lat="46.53245" lon="-0.77383">
        <ele>52.686455</ele>
        <time>2013-09-19 17:37:30Z</time>
      </trkpt>
      <trkpt lat="46.53246" lon="-0.77382">
        <ele>52.686459</ele>
        <time>2013-09-19 17:37:34Z</time>
      </trkpt>
      <trkpt lat="46.53248" lon="-0.77381">
        <ele>50.686481</ele>
        <time>2013-09-19 17:37:38Z</time>
      </trkpt>
      <trkpt lat="46.53249" lon="-0.7738">
        <ele>51.686489</ele>
        <time>2013-09-19 17:37:42Z</time>
      </trkpt>
      <trkpt lat="46.53249" lon="-0.77381">
        <ele>51.686485</ele>
        <time>2013-09-19 17:37:46Z</time>
      </trkpt>
      <trkpt lat="46.53249" lon="-0.77381">
        <ele>51.686485</ele>
        <time>2013-09-19 17:37:50Z</time>
      </trkpt>
      <trkpt lat="46.53249" lon="-0.77381">
        <ele>51.686485</ele>
        <time>2013-09-19 17:37:54Z</time>
      </trkpt>
      <trkpt lat="46.53245" lon="-0.77384">
        <ele>53.686443</ele>
        <time>2013-09-19 17:37:58Z</time>
      </trkpt>
      <trkpt lat="46.53246" lon="-0.77385">
        <ele>54.686443</ele>
        <time>2013-09-19 17:38:02Z</time>
      </trkpt>
      <trkpt lat="46.53246" lon="-0.77385">
        <ele>54.686443</ele>
        <time>2013-09-19 17:38:06Z</time>
      </trkpt>
      <trkpt lat="46.53246" lon="-0.77385">
        <ele>54.686447</ele>
        <time>2013-09-19 17:38:10Z</time>
      </trkpt>
      <trkpt lat="46.53246" lon="-0.77385">
        <ele>54.686447</ele>
        <time>2013-09-19 17:38:14Z</time>
      </trkpt>
      <trkpt lat="46.53246" lon="-0.77385">
        <ele>54.686447</ele>
        <time>2013-09-19 17:38:18Z</time>
      </trkpt>
      <trkpt lat="46.53246" lon="-0.77385">
        <ele>54.686447</ele>
        <time>2013-09-19 17:38:22Z</time>
      </trkpt>
      <trkpt lat="46.53246" lon="-0.77385">
        <ele>54.686447</ele>
        <time>2013-09-19 17:38:26Z</time>
      </trkpt>
      <trkpt lat="46.53247" lon="-0.77387">
        <ele>49.68644</ele>
        <time>2013-09-19 17:38:30Z</time>
      </trkpt>
      <trkpt lat="46.53247" lon="-0.77387">
        <ele>49.68644</ele>
        <time>2013-09-19 17:38:34Z</time>
      </trkpt>
      <trkpt lat="46.53247" lon="-0.77387">
        <ele>49.68644</ele>
        <time>2013-09-19 17:38:38Z</time>
      </trkpt>
      <trkpt lat="46.53247" lon="-0.77387">
        <ele>49.68644</ele>
        <time>2013-09-19 17:38:42Z</time>
      </trkpt>
      <trkpt lat="46.53247" lon="-0.77387">
        <ele>49.68644</ele>
        <time>2013-09-19 17:38:46Z</time>
      </trkpt>
      <trkpt lat="46.53247" lon="-0.77387">
        <ele>49.68644</ele>
        <time>2013-09-19 17:38:50Z</time>
      </trkpt>
      <trkpt lat="46.53248" lon="-0.77384">
        <ele>55.686455</ele>
        <time>2013-09-19 17:38:54Z</time>
      </trkpt>
      <trkpt lat="46.53248" lon="-0.77384">
        <ele>55.686455</ele>
        <time>2013-09-19 17:38:58Z</time>
      </trkpt>
      <trkpt lat="46.53248" lon="-0.77384">
        <ele>55.686455</ele>
        <time>2013-09-19 17:39:02Z</time>
      </trkpt>
      <trkpt lat="46.53246" lon="-0.77383">
        <ele>52.686455</ele>
        <time>2013-09-19 17:39:06Z</time>
      </trkpt>
      <trkpt lat="46.53245" lon="-0.77383">
        <ele>52.686455</ele>
        <time>2013-09-19 17:39:10Z</time>
      </trkpt>
      <trkpt lat="46.53245" lon="-0.77383">
        <ele>52.686455</ele>
        <time>2013-09-19 17:39:14Z</time>
      </trkpt>
      <trkpt lat="46.53245" lon="-0.77383">
        <ele>53.686455</ele>
        <time>2013-09-19 17:39:18Z</time>
      </trkpt>
      <trkpt lat="46.53246" lon="-0.77383">
        <ele>54.686455</ele>
        <time>2013-09-19 17:39:22Z</time>
      </trkpt>
      <trkpt lat="46.53246" lon="-0.77383">
        <ele>54.686455</ele>
        <time>2013-09-19 17:39:26Z</time>
      </trkpt>
      <trkpt lat="46.53246" lon="-0.77383">
        <ele>54.686455</ele>
        <time>2013-09-19 17:39:30Z</time>
      </trkpt>
      <trkpt lat="46.53246" lon="-0.77383">
        <ele>54.686455</ele>
        <time>2013-09-19 17:39:34Z</time>
      </trkpt>
      <trkpt lat="46.53246" lon="-0.77383">
        <ele>54.686455</ele>
        <time>2013-09-19 17:39:40Z</time>
      </trkpt>
      <trkpt lat="46.53246" lon="-0.77383">
        <ele>54.686455</ele>
        <time>2013-09-19 17:39:44Z</time>
      </trkpt>
      <trkpt lat="46.53248" lon="-0.77384">
        <ele>59.68647</ele>
        <time>2013-09-19 17:39:48Z</time>
      </trkpt>
      <trkpt lat="46.53248" lon="-0.77384">
        <ele>59.68647</ele>
        <time>2013-09-19 17:39:52Z</time>
      </trkpt>
      <trkpt lat="46.53248" lon="-0.77384">
        <ele>59.68647</ele>
        <time>2013-09-19 17:39:56Z</time>
      </trkpt>
      <trkpt lat="46.53248" lon="-0.77384">
        <ele>59.68647</ele>
        <time>2013-09-19 17:40:00Z</time>
      </trkpt>
      <trkpt lat="46.53248" lon="-0.77384">
        <ele>59.68647</ele>
        <time>2013-09-19 17:40:04Z</time>
      </trkpt>
      <trkpt lat="46.53248" lon="-0.77387">
        <ele>55.686443</ele>
        <time>2013-09-19 17:40:08Z</time>
      </trkpt>
      <trkpt lat="46.53248" lon="-0.77387">
        <ele>55.686443</ele>
        <time>2013-09-19 17:40:12Z</time>
      </trkpt>
      <trkpt lat="46.53248" lon="-0.77387">
        <ele>55.686443</ele>
        <time>2013-09-19 17:40:16Z</time>
      </trkpt>
      <trkpt lat="46.53248" lon="-0.77387">
        <ele>55.686443</ele>
        <time>2013-09-19 17:40:20Z</time>
      </trkpt>
      <trkpt lat="46.53241" lon="-0.77396">
        <ele>51.68634</ele>
        <time>2013-09-19 17:40:24Z</time>
      </trkpt>
      <trkpt lat="46.53237" lon="-0.774">
        <ele>50.686295</ele>
        <time>2013-09-19 17:40:28Z</time>
      </trkpt>
      <trkpt lat="46.53236" lon="-0.774">
        <ele>50.686295</ele>
        <time>2013-09-19 17:40:32Z</time>
      </trkpt>
      <trkpt lat="46.53236" lon="-0.774">
        <ele>50.686295</ele>
        <time>2013-09-19 17:40:36Z</time>
      </trkpt>
      <trkpt lat="46.53236" lon="-0.774">
        <ele>50.686295</ele>
        <time>2013-09-19 17:40:40Z</time>
      </trkpt>
      <trkpt lat="46.53236" lon="-0.774">
        <ele>50.686295</ele>
        <time>2013-09-19 17:40:44Z</time>
      </trkpt>
      <trkpt lat="46.53236" lon="-0.774">
        <ele>50.686295</ele>
        <time>2013-09-19 17:40:48Z</time>
      </trkpt>
      <trkpt lat="46.53236" lon="-0.774">
        <ele>50.686295</ele>
        <time>2013-09-19 17:40:52Z</time>
      </trkpt>
      <trkpt lat="46.53236" lon="-0.774">
        <ele>50.686295</ele>
        <time>2013-09-19 17:40:56Z</time>
      </trkpt>
      <trkpt lat="46.53234" lon="-0.77388">
        <ele>48.686371</ele>
        <time>2013-09-19 17:41:00Z</time>
      </trkpt>
      <trkpt lat="46.53236" lon="-0.77386">
        <ele>48.68639</ele>
        <time>2013-09-19 17:41:04Z</time>
      </trkpt>
      <trkpt lat="46.53241" lon="-0.7738">
        <ele>48.68647</ele>
        <time>2013-09-19 17:41:08Z</time>
      </trkpt>
      <trkpt lat="46.53243" lon="-0.7738">
        <ele>47.686478</ele>
        <time>2013-09-19 17:41:12Z</time>
      </trkpt>
      <trkpt lat="46.53243" lon="-0.7738">
        <ele>46.686478</ele>
        <time>2013-09-19 17:41:16Z</time>
      </trkpt>
      <trkpt lat="46.53241" lon="-0.77374">
        <ele>45.686516</ele>
        <time>2013-09-19 17:41:20Z</time>
      </trkpt>
      <trkpt lat="46.53241" lon="-0.77372">
        <ele>45.686527</ele>
        <time>2013-09-19 17:41:24Z</time>
      </trkpt>
      <trkpt lat="46.53238" lon="-0.77362">
        <ele>45.686584</ele>
        <time>2013-09-19 17:41:28Z</time>
      </trkpt>
      <trkpt lat="46.53236" lon="-0.77357">
        <ele>45.686623</ele>
        <time>2013-09-19 17:41:32Z</time>
      </trkpt>
      <trkpt lat="46.53227" lon="-0.77348">
        <ele>45.686646</ele>
        <time>2013-09-19 17:41:36Z</time>
      </trkpt>
      <trkpt lat="46.53221" lon="-0.77344">
        <ele>44.686646</ele>
        <time>2013-09-19 17:41:40Z</time>
      </trkpt>
      <trkpt lat="46.53207" lon="-0.77339">
        <ele>44.686634</ele>
        <time>2013-09-19 17:41:44Z</time>
      </trkpt>
      <trkpt lat="46.53198" lon="-0.77333">
        <ele>43.686642</ele>
        <time>2013-09-19 17:41:48Z</time>
      </trkpt>
      <trkpt lat="46.53193" lon="-0.77327">
        <ele>43.686665</ele>
        <time>2013-09-19 17:41:52Z</time>
      </trkpt>
      <trkpt lat="46.53192" lon="-0.77326">
        <ele>43.686676</ele>
        <time>2013-09-19 17:41:56Z</time>
      </trkpt>
      <trkpt lat="46.53192" lon="-0.77326">
        <ele>43.686676</ele>
        <time>2013-09-19 17:42:00Z</time>
      </trkpt>
      <trkpt lat="46.53192" lon="-0.77326">
        <ele>43.686676</ele>
        <time>2013-09-19 17:42:04Z</time>
      </trkpt>
      <trkpt lat="46.53192" lon="-0.77326">
        <ele>43.686676</ele>
        <time>2013-09-19 17:42:08Z</time>
      </trkpt>
      <trkpt lat="46.53192" lon="-0.77326">
        <ele>43.686676</ele>
        <time>2013-09-19 17:42:12Z</time>
      </trkpt>
      <trkpt lat="46.53192" lon="-0.77326">
        <ele>43.686676</ele>
        <time>2013-09-19 17:42:16Z</time>
      </trkpt>
      <trkpt lat="46.53192" lon="-0.77326">
        <ele>43.686676</ele>
        <time>2013-09-19 17:42:20Z</time>
      </trkpt>
      <trkpt lat="46.53192" lon="-0.77326">
        <ele>43.686676</ele>
        <time>2013-09-19 17:42:24Z</time>
      </trkpt>
      <trkpt lat="46.53179" lon="-0.77323">
        <ele>49.686649</ele>
        <time>2013-09-19 17:42:28Z</time>
      </trkpt>
      <trkpt lat="46.5317" lon="-0.77324">
        <ele>49.686604</ele>
        <time>2013-09-19 17:42:32Z</time>
      </trkpt>
      <trkpt lat="46.53164" lon="-0.77329">
        <ele>49.686546</ele>
        <time>2013-09-19 17:42:36Z</time>
      </trkpt>
      <trkpt lat="46.53159" lon="-0.77333">
        <ele>49.686485</ele>
        <time>2013-09-19 17:42:40Z</time>
      </trkpt>
      <trkpt lat="46.53152" lon="-0.77342">
        <ele>50.686401</ele>
        <time>2013-09-19 17:42:44Z</time>
      </trkpt>
      <trkpt lat="46.53143" lon="-0.7735">
        <ele>50.686287</ele>
        <time>2013-09-19 17:42:48Z</time>
      </trkpt>
      <trkpt lat="46.53133" lon="-0.77355">
        <ele>50.686226</ele>
        <time>2013-09-19 17:42:52Z</time>
      </trkpt>
      <trkpt lat="46.53125" lon="-0.77357">
        <ele>51.68618</ele>
        <time>2013-09-19 17:42:56Z</time>
      </trkpt>
      <trkpt lat="46.53119" lon="-0.77358">
        <ele>51.686134</ele>
        <time>2013-09-19 17:43:00Z</time>
      </trkpt>
      <trkpt lat="46.53111" lon="-0.77359">
        <ele>52.686111</ele>
        <time>2013-09-19 17:43:04Z</time>
      </trkpt>
      <trkpt lat="46.53105" lon="-0.77361">
        <ele>53.686073</ele>
        <time>2013-09-19 17:43:08Z</time>
      </trkpt>
      <trkpt lat="46.53098" lon="-0.77361">
        <ele>54.686031</ele>
        <time>2013-09-19 17:43:12Z</time>
      </trkpt>
      <trkpt lat="46.53092" lon="-0.77361">
        <ele>55.686016</ele>
        <time>2013-09-19 17:43:16Z</time>
      </trkpt>
      <trkpt lat="46.53087" lon="-0.77361">
        <ele>55.685982</ele>
        <time>2013-09-19 17:43:20Z</time>
      </trkpt>
      <trkpt lat="46.5308" lon="-0.77361">
        <ele>55.68597</ele>
        <time>2013-09-19 17:43:24Z</time>
      </trkpt>
      <trkpt lat="46.53075" lon="-0.77359">
        <ele>54.685963</ele>
        <time>2013-09-19 17:43:28Z</time>
      </trkpt>
      <trkpt lat="46.5307" lon="-0.77357">
        <ele>54.685959</ele>
        <time>2013-09-19 17:43:32Z</time>
      </trkpt>
      <trkpt lat="46.53065" lon="-0.77356">
        <ele>54.68594</ele>
        <time>2013-09-19 17:43:36Z</time>
      </trkpt>
      <trkpt lat="46.53059" lon="-0.77359">
        <ele>53.685902</ele>
        <time>2013-09-19 17:43:40Z</time>
      </trkpt>
      <trkpt lat="46.53054" lon="-0.77361">
        <ele>52.685867</ele>
        <time>2013-09-19 17:43:44Z</time>
      </trkpt>
      <trkpt lat="46.53054" lon="-0.77361">
        <ele>52.685867</ele>
        <time>2013-09-19 17:43:48Z</time>
      </trkpt>
      <trkpt lat="46.53043" lon="-0.77363">
        <ele>52.685795</ele>
        <time>2013-09-19 17:43:52Z</time>
      </trkpt>
      <trkpt lat="46.53042" lon="-0.77363">
        <ele>52.685806</ele>
        <time>2013-09-19 17:43:56Z</time>
      </trkpt>
      <trkpt lat="46.53042" lon="-0.77363">
        <ele>52.685806</ele>
        <time>2013-09-19 17:44:00Z</time>
      </trkpt>
      <trkpt lat="46.53042" lon="-0.77359">
        <ele>49.685814</ele>
        <time>2013-09-19 17:44:04Z</time>
      </trkpt>
      <trkpt lat="46.53042" lon="-0.77359">
        <ele>49.685829</ele>
        <time>2013-09-19 17:44:08Z</time>
      </trkpt>
      <trkpt lat="46.53042" lon="-0.7736">
        <ele>47.68581</ele>
        <time>2013-09-19 17:44:12Z</time>
      </trkpt>
      <trkpt lat="46.53041" lon="-0.77355">
        <ele>48.685856</ele>
        <time>2013-09-19 17:44:16Z</time>
      </trkpt>
      <trkpt lat="46.53041" lon="-0.77344">
        <ele>49.685925</ele>
        <time>2013-09-19 17:44:20Z</time>
      </trkpt>
      <trkpt lat="46.53041" lon="-0.7734">
        <ele>49.685955</ele>
        <time>2013-09-19 17:44:24Z</time>
      </trkpt>
      <trkpt lat="46.53044" lon="-0.77317">
        <ele>49.686157</ele>
        <time>2013-09-19 17:44:28Z</time>
      </trkpt>
      <trkpt lat="46.53043" lon="-0.77306">
        <ele>47.686234</ele>
        <time>2013-09-19 17:44:32Z</time>
      </trkpt>
      <trkpt lat="46.53041" lon="-0.77297">
        <ele>46.686287</ele>
        <time>2013-09-19 17:44:36Z</time>
      </trkpt>
      <trkpt lat="46.5304" lon="-0.77287">
        <ele>46.686356</ele>
        <time>2013-09-19 17:44:40Z</time>
      </trkpt>
      <trkpt lat="46.53039" lon="-0.77285">
        <ele>46.686378</ele>
        <time>2013-09-19 17:44:44Z</time>
      </trkpt>
      <trkpt lat="46.53038" lon="-0.77282">
        <ele>46.686386</ele>
        <time>2013-09-19 17:44:48Z</time>
      </trkpt>
      <trkpt lat="46.53038" lon="-0.7728">
        <ele>45.686401</ele>
        <time>2013-09-19 17:44:52Z</time>
      </trkpt>
      <trkpt lat="46.53038" lon="-0.7728">
        <ele>45.686401</ele>
        <time>2013-09-19 17:44:56Z</time>
      </trkpt>
      <trkpt lat="46.53038" lon="-0.7728">
        <ele>45.686401</ele>
        <time>2013-09-19 17:45:00Z</time>
      </trkpt>
      <trkpt lat="46.53037" lon="-0.77269">
        <ele>45.686478</ele>
        <time>2013-09-19 17:45:04Z</time>
      </trkpt>
      <trkpt lat="46.53037" lon="-0.77269">
        <ele>45.686478</ele>
        <time>2013-09-19 17:45:08Z</time>
      </trkpt>
      <trkpt lat="46.53035" lon="-0.77265">
        <ele>45.686504</ele>
        <time>2013-09-19 17:45:12Z</time>
      </trkpt>
      <trkpt lat="46.53035" lon="-0.77264">
        <ele>45.686504</ele>
        <time>2013-09-19 17:45:18Z</time>
      </trkpt>
      <trkpt lat="46.53034" lon="-0.77263">
        <ele>45.686512</ele>
        <time>2013-09-19 17:45:22Z</time>
      </trkpt>
      <trkpt lat="46.53034" lon="-0.77263">
        <ele>45.686512</ele>
        <time>2013-09-19 17:45:26Z</time>
      </trkpt>
      <trkpt lat="46.53034" lon="-0.77263">
        <ele>45.686512</ele>
        <time>2013-09-19 17:45:30Z</time>
      </trkpt>
      <trkpt lat="46.53034" lon="-0.77263">
        <ele>45.686512</ele>
        <time>2013-09-19 17:45:34Z</time>
      </trkpt>
      <trkpt lat="46.53034" lon="-0.77263">
        <ele>45.686512</ele>
        <time>2013-09-19 17:45:38Z</time>
      </trkpt>
      <trkpt lat="46.53034" lon="-0.77263">
        <ele>45.686512</ele>
        <time>2013-09-19 17:45:42Z</time>
      </trkpt>
      <trkpt lat="46.53034" lon="-0.77263">
        <ele>45.686512</ele>
        <time>2013-09-19 17:45:46Z</time>
      </trkpt>
      <trkpt lat="46.53036" lon="-0.77263">
        <ele>48.68652</ele>
        <time>2013-09-19 17:45:50Z</time>
      </trkpt>
      <trkpt lat="46.53035" lon="-0.77263">
        <ele>47.68652</ele>
        <time>2013-09-19 17:45:54Z</time>
      </trkpt>
      <trkpt lat="46.53035" lon="-0.77264">
        <ele>47.686508</ele>
        <time>2013-09-19 17:45:58Z</time>
      </trkpt>
      <trkpt lat="46.53034" lon="-0.77263">
        <ele>46.686512</ele>
        <time>2013-09-19 17:46:02Z</time>
      </trkpt>
      <trkpt lat="46.53033" lon="-0.77264">
        <ele>46.686508</ele>
        <time>2013-09-19 17:46:06Z</time>
      </trkpt>
      <trkpt lat="46.53031" lon="-0.77264">
        <ele>44.686485</ele>
        <time>2013-09-19 17:46:10Z</time>
      </trkpt>
      <trkpt lat="46.5303" lon="-0.77263">
        <ele>44.686497</ele>
        <time>2013-09-19 17:46:14Z</time>
      </trkpt>
      <trkpt lat="46.53028" lon="-0.77262">
        <ele>43.686489</ele>
        <time>2013-09-19 17:46:18Z</time>
      </trkpt>
      <trkpt lat="46.53027" lon="-0.77262">
        <ele>43.686497</ele>
        <time>2013-09-19 17:46:22Z</time>
      </trkpt>
      <trkpt lat="46.53027" lon="-0.77262">
        <ele>43.686497</ele>
        <time>2013-09-19 17:46:26Z</time>
      </trkpt>
      <trkpt lat="46.53027" lon="-0.77262">
        <ele>43.686497</ele>
        <time>2013-09-19 17:46:30Z</time>
      </trkpt>
      <trkpt lat="46.53024" lon="-0.77263">
        <ele>44.686474</ele>
        <time>2013-09-19 17:46:34Z</time>
      </trkpt>
      <trkpt lat="46.53023" lon="-0.77263">
        <ele>44.68647</ele>
        <time>2013-09-19 17:46:38Z</time>
      </trkpt>
      <trkpt lat="46.53022" lon="-0.77262">
        <ele>44.686466</ele>
        <time>2013-09-19 17:46:42Z</time>
      </trkpt>
      <trkpt lat="46.53019" lon="-0.77261">
        <ele>45.686466</ele>
        <time>2013-09-19 17:46:46Z</time>
      </trkpt>
      <trkpt lat="46.53016" lon="-0.7726">
        <ele>45.686455</ele>
        <time>2013-09-19 17:46:50Z</time>
      </trkpt>
      <trkpt lat="46.53011" lon="-0.77258">
        <ele>46.686451</ele>
        <time>2013-09-19 17:46:54Z</time>
      </trkpt>
      <trkpt lat="46.53004" lon="-0.77255">
        <ele>47.686451</ele>
        <time>2013-09-19 17:46:58Z</time>
      </trkpt>
      <trkpt lat="46.52996" lon="-0.77251">
        <ele>48.686451</ele>
        <time>2013-09-19 17:47:02Z</time>
      </trkpt>
      <trkpt lat="46.52993" lon="-0.77249">
        <ele>48.686451</ele>
        <time>2013-09-19 17:47:06Z</time>
      </trkpt>
      <trkpt lat="46.52983" lon="-0.77244">
        <ele>49.686451</ele>
        <time>2013-09-19 17:47:10Z</time>
      </trkpt>
      <trkpt lat="46.52979" lon="-0.77243">
        <ele>50.686436</ele>
        <time>2013-09-19 17:47:14Z</time>
      </trkpt>
      <trkpt lat="46.52974" lon="-0.7724">
        <ele>50.686443</ele>
        <time>2013-09-19 17:47:18Z</time>
      </trkpt>
      <trkpt lat="46.52967" lon="-0.77232">
        <ele>52.686474</ele>
        <time>2013-09-19 17:47:22Z</time>
      </trkpt>
      <trkpt lat="46.52958" lon="-0.77224">
        <ele>53.686493</ele>
        <time>2013-09-19 17:47:26Z</time>
      </trkpt>
      <trkpt lat="46.52949" lon="-0.77217">
        <ele>54.68652</ele>
        <time>2013-09-19 17:47:30Z</time>
      </trkpt>
      <trkpt lat="46.52947" lon="-0.77216">
        <ele>54.68652</ele>
        <time>2013-09-19 17:47:34Z</time>
      </trkpt>
      <trkpt lat="46.52931" lon="-0.77206">
        <ele>57.686531</ele>
        <time>2013-09-19 17:47:38Z</time>
      </trkpt>
      <trkpt lat="46.52926" lon="-0.77203">
        <ele>59.686523</ele>
        <time>2013-09-19 17:47:42Z</time>
      </trkpt>
      <trkpt lat="46.52923" lon="-0.77201">
        <ele>59.686527</ele>
        <time>2013-09-19 17:47:46Z</time>
      </trkpt>
      <trkpt lat="46.52919" lon="-0.77195">
        <ele>60.686565</ele>
        <time>2013-09-19 17:47:50Z</time>
      </trkpt>
      <trkpt lat="46.52914" lon="-0.77187">
        <ele>61.686607</ele>
        <time>2013-09-19 17:47:54Z</time>
      </trkpt>
      <trkpt lat="46.52909" lon="-0.7718">
        <ele>63.686646</ele>
        <time>2013-09-19 17:47:58Z</time>
      </trkpt>
      <trkpt lat="46.52903" lon="-0.77171">
        <ele>64.686676</ele>
        <time>2013-09-19 17:48:02Z</time>
      </trkpt>
      <trkpt lat="46.52895" lon="-0.7716">
        <ele>66.686729</ele>
        <time>2013-09-19 17:48:06Z</time>
      </trkpt>
      <trkpt lat="46.52887" lon="-0.77152">
        <ele>67.686752</ele>
        <time>2013-09-19 17:48:10Z</time>
      </trkpt>
      <trkpt lat="46.52878" lon="-0.77144">
        <ele>68.686775</ele>
        <time>2013-09-19 17:48:14Z</time>
      </trkpt>
      <trkpt lat="46.5287" lon="-0.77137">
        <ele>69.686798</ele>
        <time>2013-09-19 17:48:18Z</time>
      </trkpt>
      <trkpt lat="46.52863" lon="-0.7713">
        <ele>71.686829</ele>
        <time>2013-09-19 17:48:22Z</time>
      </trkpt>
      <trkpt lat="46.52859" lon="-0.77126">
        <ele>72.686844</ele>
        <time>2013-09-19 17:48:26Z</time>
      </trkpt>
      <trkpt lat="46.52859" lon="-0.77126">
        <ele>72.686844</ele>
        <time>2013-09-19 17:48:30Z</time>
      </trkpt>
      <trkpt lat="46.52859" lon="-0.77126">
        <ele>72.686844</ele>
        <time>2013-09-19 17:48:34Z</time>
      </trkpt>
      <trkpt lat="46.52836" lon="-0.77116">
        <ele>74.686821</ele>
        <time>2013-09-19 17:48:38Z</time>
      </trkpt>
      <trkpt lat="46.52821" lon="-0.77114">
        <ele>74.686775</ele>
        <time>2013-09-19 17:48:42Z</time>
      </trkpt>
      <trkpt lat="46.5281" lon="-0.77115">
        <ele>75.686722</ele>
        <time>2013-09-19 17:48:46Z</time>
      </trkpt>
      <trkpt lat="46.52807" lon="-0.77116">
        <ele>75.686707</ele>
        <time>2013-09-19 17:48:50Z</time>
      </trkpt>
      <trkpt lat="46.52802" lon="-0.77114">
        <ele>77.686699</ele>
        <time>2013-09-19 17:48:54Z</time>
      </trkpt>
      <trkpt lat="46.52798" lon="-0.77114">
        <ele>78.686684</ele>
        <time>2013-09-19 17:48:58Z</time>
      </trkpt>
      <trkpt lat="46.52792" lon="-0.77114">
        <ele>79.686661</ele>
        <time>2013-09-19 17:49:02Z</time>
      </trkpt>
      <trkpt lat="46.52792" lon="-0.77114">
        <ele>79.686661</ele>
        <time>2013-09-19 17:49:06Z</time>
      </trkpt>
      <trkpt lat="46.52792" lon="-0.77114">
        <ele>79.686661</ele>
        <time>2013-09-19 17:49:10Z</time>
      </trkpt>
      <trkpt lat="46.52784" lon="-0.77108">
        <ele>81.686668</ele>
        <time>2013-09-19 17:49:14Z</time>
      </trkpt>
      <trkpt lat="46.52784" lon="-0.77108">
        <ele>81.686668</ele>
        <time>2013-09-19 17:49:18Z</time>
      </trkpt>
      <trkpt lat="46.52784" lon="-0.77104">
        <ele>85.686707</ele>
        <time>2013-09-19 17:49:24Z</time>
      </trkpt>
      <trkpt lat="46.52784" lon="-0.77103">
        <ele>87.686714</ele>
        <time>2013-09-19 17:49:28Z</time>
      </trkpt>
    </trkseg>
  </trk>
</gpx>